| time (UTC) | temp F | wind direction | speed knots | gust knots | rain 1hr in | rain 24hr in | rain mn in | humidity % | barometer mb |
| 20260504214537 | 75 | 161 | 0.9 | 8.7 | 0.00 | 0.00 | 0.00 | 41 | 1009.5 |
| 20260504213038 | 75 | 276 | 2.6 | 8.7 | 0.00 | 0.00 | 0.00 | 41 | 1009.3 |
| 20260504211539 | 75 | 136 | 1.7 | 9.6 | 0.00 | 0.00 | 0.00 | 40 | 1009.3 |
| 20260504210040 | 75 | 301 | 2.6 | 8.7 | 0.00 | 0.00 | 0.00 | 40 | 1009.3 |
| 20260504204533 | 74 | 71 | 2.6 | 7.8 | 0.00 | 0.00 | 0.00 | 42 | 1009.3 |
| 20260504203050 | 76 | 243 | 1.7 | 7.0 | 0.00 | 0.00 | 0.00 | 39 | 1009.5 |
| 20260504201540 | 75 | 184 | 1.7 | 6.1 | 0.00 | 0.00 | 0.00 | 43 | 1009.7 |
| 20260504200032 | 75 | 228 | 1.7 | 6.1 | 0.00 | 0.00 | 0.00 | 41 | 1010.0 |
| 20260504194538 | 74 | 235 | 2.6 | 7.8 | 0.00 | 0.00 | 0.00 | 42 | 1010.1 |
| 20260504193034 | 74 | 24 | 2.6 | 9.6 | 0.00 | 0.00 | 0.00 | 40 | 1010.6 |
| 20260504191535 | 74 | 259 | 3.5 | 9.6 | 0.00 | 0.00 | 0.00 | 40 | 1010.7 |
| 20260504190049 | 74 | 345 | 1.7 | 7.0 | 0.00 | 0.00 | 0.00 | 44 | 1010.7 |
| 20260504184536 | 74 | 219 | 2.6 | 8.7 | 0.00 | 0.00 | 0.00 | 43 | 1011.1 |
| 20260504183035 | 74 | 249 | 1.7 | 7.8 | 0.00 | 0.00 | 0.00 | 44 | 1011.5 |
| 20260504181542 | 73 | 234 | 0.9 | 6.1 | 0.00 | 0.00 | 0.00 | 47 | 1011.7 |
| 20260504180034 | 71 | 300 | 2.6 | 9.6 | 0.00 | 0.00 | 0.00 | 47 | 1011.8 |
| 20260504174536 | 71 | 142 | 1.7 | 6.1 | 0.00 | 0.00 | 0.00 | 47 | 1011.8 |
| 20260504173035 | 71 | 163 | 2.6 | 8.7 | 0.00 | 0.00 | 0.00 | 46 | 1012.1 |
| 20260504171535 | 69 | 269 | 2.6 | 9.6 | 0.00 | 0.00 | 0.00 | 45 | 1012.4 |
| 20260504081534 | 43 | 0 | 0.0 | 0.0 | 0.00 | 0.00 | 0.00 | 82 | 1015.2 |
| 20260504044532 | 38 | 348 | 0.0 | 1.7 | 0.00 | 0.00 | 0.00 | 83 | 1016.1 |
| 20260504043036 | 38 | 348 | 0.9 | 1.7 | 0.00 | 0.00 | 0.00 | 82 | 1016.1 |
| 20260504041534 | 39 | 0 | 0.0 | 0.0 | 0.00 | 0.00 | 0.00 | 81 | 1016.0 |
| 20260504040035 | 40 | 0 | 0.0 | 0.0 | 0.00 | 0.00 | 0.00 | 79 | 1016.1 |
| 20260504034535 | 40 | 0 | 0.0 | 0.0 | 0.00 | 0.00 | 0.00 | 78 | 1015.8 |
| 20260504033038 | 41 | 0 | 0.0 | 0.0 | 0.00 | 0.00 | 0.00 | 77 | 1015.8 |
| 20260504031534 | 41 | 0 | 0.0 | 0.0 | 0.00 | 0.00 | 0.00 | 76 | 1015.7 |
| 20260504030041 | 42 | 0 | 0.0 | 0.0 | 0.00 | 0.00 | 0.00 | 74 | 1015.7 |
| 20260504024532 | 42 | 0 | 0.0 | 0.0 | 0.00 | 0.00 | 0.00 | 72 | 1015.7 |
| 20260504023035 | 43 | 0 | 0.0 | 0.0 | 0.00 | 0.00 | 0.00 | 71 | 1015.5 |
| 20260504021531 | 43 | 0 | 0.0 | 0.0 | 0.00 | 0.00 | 0.00 | 70 | 1015.5 |
| 20260504020033 | 44 | 0 | 0.0 | 0.0 | 0.00 | 0.00 | 0.00 | 68 | 1015.3 |
| 20260504014545 | 45 | 0 | 0.0 | 0.0 | 0.00 | 0.00 | 0.00 | 68 | 1015.1 |
| 20260504013037 | 46 | 0 | 0.0 | 0.0 | 0.00 | 0.00 | 0.00 | 65 | 1015.1 |
| 20260504011536 | 47 | 0 | 0.0 | 0.0 | 0.00 | 0.00 | 0.00 | 61 | 1015.0 |
| 20260504010034 | 49 | 0 | 0.0 | 0.9 | 0.00 | 0.00 | 0.00 | 58 | 1015.0 |
| 20260504004532 | 51 | 0 | 0.0 | 0.9 | 0.00 | 0.00 | 0.00 | 53 | 1014.8 |
| 20260504003030 | 53 | 0 | 0.0 | 0.9 | 0.00 | 0.00 | 0.00 | 49 | 1014.8 |
| 20260504001530 | 54 | 0 | 0.0 | 0.9 | 0.00 | 0.00 | 0.00 | 45 | 1014.6 |
| 20260504000043 | 56 | 348 | 0.9 | 5.2 | 0.00 | 0.00 | 0.00 | 41 | 1014.6 |
| 20260503234535 | 58 | 336 | 0.9 | 3.5 | 0.00 | 0.00 | 0.00 | 38 | 1014.4 |
| 20260503233031 | 59 | 5 | 0.9 | 5.2 | 0.00 | 0.00 | 0.00 | 38 | 1014.4 |
| 20260503231533 | 60 | 309 | 1.7 | 7.0 | 0.00 | 0.00 | 0.00 | 36 | 1014.3 |
| 20260503230032 | 60 | 19 | 4.3 | 9.6 | 0.00 | 0.00 | 0.00 | 36 | 1014.2 |
| 20260503224539 | 61 | 5 | 4.3 | 9.6 | 0.00 | 0.00 | 0.00 | 35 | 1014.2 |
| 20260503223036 | 61 | 360 | 3.5 | 13.0 | 0.00 | 0.00 | 0.00 | 34 | 1014.2 |
| 20260503221542 | 61 | 10 | 2.6 | 13.0 | 0.00 | 0.00 | 0.00 | 34 | 1014.3 |
| 20260503220035 | 61 | 328 | 4.3 | 8.7 | 0.00 | 0.00 | 0.00 | 35 | 1014.2 |